Time;durP1;ratioP1;P1;durP2;ratioP2;P2;SDS_P1;SDS_P2;PMS_P1;PMS_P2;Temp;Humidity;BMP_temperature;BMP_pressure;BME280_temperature;BME280_humidity;BME280_pressure;Samples;Min_cycle;Max_cycle;Signal;HPM_P1;HPM_P2
2022/06/07 00:01:36;;;;;;;10.75;6.30;;;13.00;99.90;;;;;;5125112;27;20490;-67
2022/06/07 00:04:02;;;;;;;12.32;5.47;;;13.00;99.90;;;;;;5151349;27;20082;-67
2022/06/07 00:06:29;;;;;;;9.85;6.35;;;13.10;99.90;;;;;;5150755;27;20035;-68
2022/06/07 00:08:55;;;;;;;10.20;5.40;;;13.10;99.90;;;;;;5149175;27;20053;-68
2022/06/07 00:11:21;;;;;;;11.18;5.82;;;13.00;99.90;;;;;;5150863;27;20110;-67
2022/06/07 00:13:47;;;;;;;12.98;6.13;;;13.00;99.90;;;;;;5150140;27;20521;-68
2022/06/07 00:16:15;;;;;;;10.05;5.47;;;13.00;99.90;;;;;;5130795;27;20095;-67
2022/06/07 00:18:40;;;;;;;8.60;5.55;;;13.00;99.90;;;;;;5130809;27;20039;-67
2022/06/07 00:21:06;;;;;;;11.32;6.30;;;13.00;99.90;;;;;;5149275;27;20047;-68
2022/06/07 00:23:34;;;;;;;11.40;6.00;;;13.00;99.90;;;;;;5131430;27;20057;-68
2022/06/07 00:26:01;;;;;;;11.18;6.47;;;13.90;99.90;;;;;;5150192;27;20477;-68
2022/06/07 00:28:28;;;;;;;10.70;6.38;;;13.00;99.90;;;;;;5149544;27;20041;-67
2022/06/07 00:30:54;;;;;;;11.70;6.18;;;13.00;99.90;;;;;;5149526;27;20043;-68
2022/06/07 00:33:22;;;;;;;10.95;6.50;;;12.90;99.90;;;;;;5150115;27;20168;-68
2022/06/07 00:35:48;;;;;;;10.80;6.10;;;12.90;99.90;;;;;;5148979;27;20050;-67
2022/06/07 00:38:15;;;;;;;13.15;6.78;;;12.90;99.90;;;;;;5149647;27;20363;-67
2022/06/07 00:40:41;;;;;;;15.18;7.65;;;13.00;99.90;;;;;;5131365;27;20043;-67
2022/06/07 00:43:07;;;;;;;11.27;7.20;;;12.90;99.90;;;;;;5137698;27;20042;-67
2022/06/07 00:45:34;;;;;;;12.68;7.60;;;13.00;99.90;;;;;;5148995;27;20126;-68
2022/06/07 00:47:59;;;;;;;11.63;7.82;;;12.90;99.90;;;;;;5119208;27;20043;-67
2022/06/07 00:50:31;;;;;;;15.98;8.63;;;12.90;99.90;;;;;;5148868;27;20394;-67
2022/06/07 00:52:59;;;;;;;13.20;9.20;;;12.80;99.90;;;;;;5130383;27;20050;-67
2022/06/07 00:55:25;;;;;;;16.45;8.93;;;12.80;99.90;;;;;;5130341;27;20046;-67
2022/06/07 00:57:52;;;;;;;15.73;8.57;;;12.80;99.90;;;;;;5143695;27;20135;-67
2022/06/07 01:00:20;;;;;;;15.80;8.95;;;12.90;99.90;;;;;;5127730;27;20046;-68
2022/06/07 01:02:45;;;;;;;11.43;7.65;;;12.80;99.90;;;;;;5142913;27;20142;-67
2022/06/07 01:05:11;;;;;;;13.43;8.27;;;12.90;99.90;;;;;;5129903;27;20080;-68
2022/06/07 01:13:05;;;;;;;12.68;7.80;;;12.80;99.90;;;;;;5151012;27;20078;-67
2022/06/07 01:15:30;;;;;;;14.15;8.05;;;12.80;99.90;;;;;;5148800;27;20422;-67
2022/06/07 01:17:56;;;;;;;16.50;8.48;;;13.50;99.90;;;;;;5149788;27;20034;-68
2022/06/07 01:20:22;;;;;;;13.60;7.60;;;12.90;99.90;;;;;;5149103;27;20502;-68
2022/06/07 01:22:48;;;;;;;15.55;7.97;;;12.80;99.90;;;;;;5149204;27;20073;-67
2022/06/07 01:25:13;;;;;;;14.07;8.68;;;13.00;99.90;;;;;;5148222;27;20050;-67
2022/06/07 01:27:39;;;;;;;14.38;8.20;;;12.90;99.90;;;;;;5149379;27;20134;-68
2022/06/07 01:30:06;;;;;;;16.35;8.57;;;12.90;99.90;;;;;;5150045;27;20081;-68
2022/06/07 01:32:31;;;;;;;12.60;6.65;;;12.90;99.90;;;;;;5152992;27;20038;-67
2022/06/07 01:34:57;;;;;;;14.05;8.65;;;12.90;99.90;;;;;;5153071;27;20091;-67
2022/06/07 01:37:23;;;;;;;13.30;8.95;;;12.90;99.90;;;;;;5153001;27;20093;-67
2022/06/07 01:42:33;;;;;;;16.42;8.40;;;12.90;99.90;;;;;;5134474;27;20046;-67
2022/06/07 01:44:59;;;;;;;15.05;8.70;;;12.90;99.90;;;;;;5152958;27;20078;-67
2022/06/07 01:47:30;;;;;;;12.27;8.23;;;12.90;99.90;;;;;;5152729;27;20073;-67
2022/06/07 01:49:56;;;;;;;14.60;8.30;;;12.90;99.90;;;;;;5134725;27;20047;-67
2022/06/07 01:52:26;;;;;;;16.00;8.93;;;13.00;99.90;;;;;;5133037;27;20491;-67
2022/06/07 01:54:52;;;;;;;14.10;8.32;;;13.00;99.90;;;;;;5134464;27;20039;-68
2022/06/07 01:57:18;;;;;;;16.75;8.55;;;13.80;99.90;;;;;;5134231;27;20046;-67
2022/06/07 01:59:44;;;;;;;12.48;7.68;;;13.00;99.90;;;;;;5133265;27;20046;-67
2022/06/07 02:02:10;;;;;;;13.52;7.70;;;13.10;99.90;;;;;;5166858;27;20551;-67
2022/06/07 02:04:37;;;;;;;10.57;7.03;;;13.60;99.90;;;;;;5152141;27;20052;-67
2022/06/07 02:07:05;;;;;;;13.38;8.20;;;13.00;99.90;;;;;;5152351;27;20047;-68
2022/06/07 02:09:31;;;;;;;10.13;7.10;;;13.00;99.90;;;;;;5152397;27;20043;-68
2022/06/07 02:11:57;;;;;;;13.57;8.10;;;13.00;99.90;;;;;;5134482;27;20050;-68
2022/06/07 02:14:23;;;;;;;13.15;7.78;;;13.70;99.90;;;;;;5151773;27;20042;-68
2022/06/07 02:16:49;;;;;;;13.05;8.40;;;13.00;99.90;;;;;;5152111;27;20038;-68
2022/06/07 02:19:14;;;;;;;15.60;8.90;;;13.00;99.90;;;;;;5133858;27;20394;-68
2022/06/07 02:21:40;;;;;;;13.55;8.55;;;13.10;99.90;;;;;;5151596;27;20043;-68
2022/06/07 02:24:07;;;;;;;16.90;8.63;;;13.20;99.90;;;;;;5152147;27;20056;-68
2022/06/07 02:26:41;;;;;;;12.35;7.28;;;13.20;99.90;;;;;;5122127;27;20168;-68
2022/06/07 02:29:09;;;;;;;15.68;7.93;;;13.20;99.90;;;;;;5113346;27;20043;-68
2022/06/07 02:31:37;;;;;;;12.45;8.13;;;13.20;99.90;;;;;;5131198;27;20118;-68
2022/06/07 02:34:04;;;;;;;13.10;7.50;;;13.20;99.90;;;;;;5113198;27;20066;-68
2022/06/07 02:36:33;;;;;;;13.18;8.05;;;13.30;99.90;;;;;;5149205;27;20031;-69
2022/06/07 02:39:00;;;;;;;11.50;7.70;;;13.30;99.90;;;;;;5152503;27;20050;-68
2022/06/07 02:41:28;;;;;;;14.15;8.05;;;13.20;99.90;;;;;;5151491;27;20046;-68
2022/06/07 02:43:54;;;;;;;17.50;8.32;;;14.00;99.90;;;;;;5151757;27;20042;-68
2022/06/07 02:46:20;;;;;;;14.68;8.65;;;13.20;99.90;;;;;;5151012;27;20141;-68
2022/06/07 02:48:46;;;;;;;13.23;9.02;;;13.20;99.90;;;;;;5149855;27;20517;-68
2022/06/07 02:51:12;;;;;;;17.35;9.00;;;13.50;99.90;;;;;;5152430;27;20075;-68
2022/06/07 02:53:38;;;;;;;15.48;8.88;;;13.20;99.90;;;;;;5150319;27;20051;-68
2022/06/07 02:56:03;;;;;;;11.77;7.43;;;14.20;99.90;;;;;;5150844;27;20035;-68
2022/06/07 02:58:30;;;;;;;15.02;8.18;;;13.20;99.90;;;;;;5151953;27;20486;-68
2022/06/07 03:00:59;;;;;;;13.82;8.23;;;14.20;99.90;;;;;;5115281;27;20073;-68
2022/06/07 03:03:27;;;;;;;12.52;8.23;;;13.20;99.90;;;;;;5134543;27;20066;-68
2022/06/07 03:05:55;;;;;;;15.15;9.00;;;13.20;99.90;;;;;;5151452;27;20051;-68
2022/06/07 03:08:22;;;;;;;13.88;8.70;;;13.30;99.90;;;;;;5151404;27;20043;-68
2022/06/07 03:10:49;;;;;;;14.30;8.70;;;13.20;99.90;;;;;;5151040;27;20050;-68
2022/06/07 03:13:16;;;;;;;15.80;8.73;;;13.20;99.90;;;;;;5151985;27;20046;-68
2022/06/07 03:15:42;;;;;;;14.63;8.02;;;14.20;99.90;;;;;;5149728;27;20057;-68
2022/06/07 03:18:09;;;;;;;11.77;7.78;;;13.20;99.90;;;;;;5144447;27;20541;-68
2022/06/07 03:20:36;;;;;;;16.02;8.55;;;13.30;99.90;;;;;;5132099;27;20089;-68
2022/06/07 03:23:02;;;;;;;14.73;8.25;;;13.30;99.90;;;;;;5132632;27;20050;-68
2022/06/07 03:25:28;;;;;;;17.00;9.18;;;13.20;99.90;;;;;;5150957;27;20081;-68
2022/06/07 03:27:53;;;;;;;14.40;8.93;;;13.20;99.90;;;;;;5151448;27;20062;-68
2022/06/07 03:30:19;;;;;;;17.80;9.07;;;13.30;99.90;;;;;;5150441;27;20068;-68
2022/06/07 03:32:45;;;;;;;16.80;9.52;;;13.30;99.90;;;;;;5132294;27;20042;-68
2022/06/07 03:35:14;;;;;;;14.52;7.38;;;13.30;99.90;;;;;;5150516;27;20042;-68
2022/06/07 03:37:41;;;;;;;13.30;8.13;;;13.30;99.90;;;;;;5151027;27;20043;-68
2022/06/07 03:40:09;;;;;;;12.75;7.60;;;13.30;99.90;;;;;;5131614;27;20043;-68
2022/06/07 03:42:35;;;;;;;15.68;7.50;;;13.30;99.90;;;;;;5151393;27;20085;-68
2022/06/07 03:45:02;;;;;;;12.43;8.20;;;13.30;99.90;;;;;;5149600;27;20074;-68
2022/06/07 03:47:27;;;;;;;18.00;8.68;;;13.20;99.90;;;;;;5150218;27;20039;-68
2022/06/07 03:49:54;;;;;;;14.10;8.27;;;13.30;99.90;;;;;;5132648;27;20071;-68
2022/06/07 03:52:20;;;;;;;14.98;8.40;;;13.30;99.90;;;;;;5131421;27;20452;-68
2022/06/07 03:54:45;;;;;;;13.93;8.35;;;13.20;99.90;;;;;;5131313;27;20511;-68
2022/06/07 03:57:12;;;;;;;12.15;7.70;;;13.20;99.90;;;;;;5148541;27;20078;-68
2022/06/07 03:59:38;;;;;;;15.38;8.25;;;13.70;99.90;;;;;;5156184;27;20043;-68
2022/06/07 04:02:07;;;;;;;15.38;7.72;;;13.80;99.90;;;;;;5113517;27;20043;-68
2022/06/07 04:04:37;;;;;;;13.45;7.93;;;13.10;99.90;;;;;;5111006;27;20075;-68
2022/06/07 04:09:50;;;;;;;16.17;8.55;;;13.10;99.90;;;;;;5129541;27;20464;-68
2022/06/07 04:12:17;;;;;;;14.40;8.68;;;13.10;99.90;;;;;;5135002;27;20050;-68
2022/06/07 04:14:44;;;;;;;14.23;8.57;;;13.00;99.90;;;;;;5148792;27;20046;-68
2022/06/07 04:17:12;;;;;;;15.25;8.68;;;13.80;99.90;;;;;;5150224;27;20047;-68
2022/06/07 04:19:39;;;;;;;15.07;8.57;;;13.20;99.90;;;;;;5149779;27;20030;-68
2022/06/07 04:22:05;;;;;;;14.93;8.52;;;13.00;99.90;;;;;;5131175;27;20401;-68
2022/06/07 04:24:32;;;;;;;9.85;7.10;;;12.90;99.90;;;;;;5131721;27;20045;-68
2022/06/07 04:26:58;;;;;;;16.02;8.25;;;12.90;99.90;;;;;;5138196;27;20421;-68
2022/06/07 04:29:26;;;;;;;15.30;8.13;;;12.90;99.90;;;;;;5149431;27;20142;-68
2022/06/07 04:31:52;;;;;;;14.68;8.35;;;12.90;99.90;;;;;;5133255;27;20046;-68
2022/06/07 04:34:19;;;;;;;14.90;7.95;;;12.80;99.90;;;;;;5148995;27;20437;-68
2022/06/07 04:36:45;;;;;;;14.32;8.15;;;12.80;99.90;;;;;;5150027;27;20393;-68
2022/06/07 04:39:11;;;;;;;17.48;7.95;;;13.30;99.90;;;;;;5149341;27;20046;-68
2022/06/07 04:41:37;;;;;;;16.83;7.95;;;12.70;99.90;;;;;;5151566;27;20043;-68
2022/06/07 04:44:03;;;;;;;11.32;6.43;;;12.60;99.90;;;;;;5149486;27;20111;-68
2022/06/07 04:46:29;;;;;;;11.30;6.88;;;12.60;99.90;;;;;;5149335;27;20038;-68
2022/06/07 04:48:55;;;;;;;13.52;6.97;;;12.60;99.90;;;;;;5130041;27;20050;-68
2022/06/07 04:51:27;;;;;;;11.05;7.00;;;12.50;99.90;;;;;;5131899;27;20372;-68
2022/06/07 04:53:54;;;;;;;14.75;7.28;;;12.50;99.90;;;;;;5129774;27;20206;-68
2022/06/07 04:56:23;;;;;;;12.80;6.13;;;13.00;99.90;;;;;;5148929;27;20549;-68
2022/06/07 04:58:49;;;;;;;14.27;6.72;;;12.50;99.90;;;;;;5127893;27;20053;-68
2022/06/07 05:01:36;;;;;;;10.85;6.18;;;12.50;99.90;;;;;;5112408;27;20409;-68
2022/06/07 05:04:03;;;;;;;13.70;6.65;;;12.50;99.90;;;;;;5148270;27;20051;-68
2022/06/07 05:06:32;;;;;;;9.35;5.95;;;12.50;99.90;;;;;;5129722;27;20124;-69
2022/06/07 05:09:04;;;;;;;12.35;6.35;;;13.30;99.90;;;;;;5149033;27;20091;-68
2022/06/07 05:11:31;;;;;;;12.20;6.50;;;12.60;99.90;;;;;;5151033;27;20122;-68
2022/06/07 05:13:58;;;;;;;16.30;6.82;;;13.80;99.90;;;;;;5133765;27;20050;-68
2022/06/07 05:16:25;;;;;;;14.90;7.40;;;12.70;99.90;;;;;;5149000;27;20047;-68
2022/06/07 05:18:53;;;;;;;8.95;5.68;;;13.70;99.90;;;;;;5130406;27;20042;-68
2022/06/07 05:21:20;;;;;;;11.93;6.72;;;12.80;99.90;;;;;;5149102;27;20475;-68
2022/06/07 05:23:46;;;;;;;11.30;6.68;;;12.80;99.90;;;;;;5148189;27;20053;-68
2022/06/07 05:26:29;;;;;;;11.57;7.10;;;13.10;99.90;;;;;;5131285;27;20479;-68
2022/06/07 05:28:56;;;;;;;14.63;6.88;;;12.80;99.90;;;;;;5149902;27;20039;-69
2022/06/07 05:31:22;;;;;;;15.07;7.82;;;12.80;99.90;;;;;;5147308;27;20050;-68
2022/06/07 05:33:48;;;;;;;12.93;7.32;;;13.30;99.90;;;;;;5148629;27;20498;-68
2022/06/07 05:36:14;;;;;;;12.88;7.10;;;12.90;99.90;;;;;;5148685;27;20164;-67
2022/06/07 05:38:39;;;;;;;13.27;6.60;;;13.20;99.90;;;;;;5130768;27;20046;-68
2022/06/07 05:41:05;;;;;;;13.20;6.72;;;12.90;99.90;;;;;;5130047;28;20118;-68
2022/06/07 05:43:31;;;;;;;15.18;6.65;;;13.80;99.90;;;;;;5138125;27;20038;-67
2022/06/07 05:45:57;;;;;;;15.52;5.40;;;13.00;99.90;;;;;;5147311;27;20083;-68
2022/06/07 05:48:23;;;;;;;13.30;6.45;;;13.00;99.90;;;;;;5148704;27;20130;-67
2022/06/07 05:50:52;;;;;;;17.17;6.40;;;13.00;99.90;;;;;;5148770;27;20074;-68
2022/06/07 05:53:19;;;;;;;14.63;6.03;;;13.00;99.90;;;;;;5145029;27;20047;-69
2022/06/07 05:55:45;;;;;;;13.93;6.60;;;13.00;99.90;;;;;;5148304;27;20046;-67
2022/06/07 05:58:11;;;;;;;12.07;6.18;;;12.10;99.90;;;;;;5130537;27;20071;-67
2022/06/07 06:00:38;;;;;;;10.52;5.85;;;12.90;99.90;;;;;;5146076;27;20055;-67
2022/06/07 06:03:05;;;;;;;12.25;5.97;;;12.90;99.90;;;;;;5128411;28;20035;-67
2022/06/07 06:05:31;;;;;;;11.73;5.15;;;13.00;99.90;;;;;;5144508;27;20038;-67
2022/06/07 06:10:41;;;;;;;13.85;4.47;;;12.90;99.90;;;;;;5148726;27;20482;-68
2022/06/07 06:13:06;;;;;;;10.40;4.20;;;13.20;99.90;;;;;;5148448;27;20041;-68
2022/06/07 06:15:32;;;;;;;7.05;4.22;;;12.90;99.90;;;;;;5148739;27;20043;-68
2022/06/07 06:18:01;;;;;;;9.15;4.30;;;12.90;99.90;;;;;;5151685;27;20076;-68
2022/06/07 06:20:27;;;;;;;8.45;4.43;;;12.80;99.90;;;;;;5115856;27;20046;-68
2022/06/07 06:22:52;;;;;;;10.20;4.00;;;12.70;99.90;;;;;;5152219;27;20117;-68
2022/06/07 06:25:18;;;;;;;8.70;4.63;;;12.70;99.90;;;;;;5149053;27;20051;-68
2022/06/07 06:27:44;;;;;;;7.53;4.15;;;12.70;99.90;;;;;;5133439;27;20039;-68
2022/06/07 06:30:10;;;;;;;7.82;4.25;;;12.60;99.90;;;;;;5151848;27;20081;-68
2022/06/07 06:32:37;;;;;;;9.23;4.20;;;12.60;99.90;;;;;;5152279;27;20262;-68
2022/06/07 06:35:04;;;;;;;7.85;3.90;;;12.60;99.90;;;;;;5151461;27;20042;-68
2022/06/07 06:37:30;;;;;;;8.48;4.20;;;12.60;99.90;;;;;;5150917;27;20046;-68
2022/06/07 06:39:55;;;;;;;9.13;4.28;;;12.60;99.90;;;;;;5152381;27;20049;-68
2022/06/07 06:42:21;;;;;;;8.27;4.57;;;12.50;99.90;;;;;;5152030;27;20373;-69
2022/06/07 06:44:47;;;;;;;7.07;3.70;;;12.50;99.90;;;;;;5151340;27;20039;-68
2022/06/07 06:47:13;;;;;;;7.57;3.50;;;12.80;99.90;;;;;;5149695;27;20041;-68
2022/06/07 06:49:41;;;;;;;5.57;3.20;;;12.50;99.90;;;;;;5151720;27;20035;-68
2022/06/07 06:52:07;;;;;;;6.43;3.15;;;13.20;99.90;;;;;;5150719;27;20045;-68
2022/06/07 06:54:34;;;;;;;6.93;3.50;;;12.60;99.90;;;;;;5150752;27;20413;-69
2022/06/07 06:57:00;;;;;;;6.30;3.33;;;12.50;99.90;;;;;;5151969;27;20488;-68
2022/06/07 06:59:26;;;;;;;9.57;4.20;;;13.00;99.90;;;;;;5144395;27;20574;-67
2022/06/07 07:01:54;;;;;;;6.50;3.40;;;12.60;99.90;;;;;;5130525;27;20065;-68
2022/06/07 07:04:20;;;;;;;8.32;3.60;;;12.70;99.90;;;;;;5112119;27;20421;-68
2022/06/07 07:06:47;;;;;;;8.90;3.13;;;12.60;99.90;;;;;;5144426;27;20031;-67
2022/06/07 07:09:14;;;;;;;6.03;2.80;;;13.90;99.90;;;;;;5149974;27;20072;-67
2022/06/07 07:11:46;;;;;;;6.25;2.70;;;12.60;99.90;;;;;;5151150;27;20038;-67
2022/06/07 07:14:14;;;;;;;10.57;2.70;;;13.20;99.90;;;;;;5148144;27;20130;-68
2022/06/07 07:16:46;;;;;;;9.73;2.42;;;13.80;99.90;;;;;;5150628;27;20078;-68
2022/06/07 07:19:13;;;;;;;10.77;2.40;;;12.80;99.90;;;;;;5150839;27;20045;-68
2022/06/07 07:21:46;;;;;;;9.02;2.78;;;12.90;99.90;;;;;;5150088;27;20037;-68
2022/06/07 07:24:18;;;;;;;7.32;2.55;;;12.90;99.90;;;;;;5149905;27;20090;-68
2022/06/07 07:26:45;;;;;;;11.65;2.75;;;13.00;99.90;;;;;;5115655;27;20035;-68
2022/06/07 07:29:13;;;;;;;7.82;2.28;;;13.10;99.90;;;;;;5149346;27;20046;-68
2022/06/07 07:31:39;;;;;;;7.28;2.35;;;13.30;99.90;;;;;;5151038;27;20187;-68
2022/06/07 07:34:08;;;;;;;7.90;2.60;;;13.30;99.90;;;;;;5151814;27;20114;-67
2022/06/07 07:36:35;;;;;;;9.88;2.40;;;13.40;99.90;;;;;;5150700;27;20093;-67
2022/06/07 07:39:01;;;;;;;10.77;2.40;;;13.40;99.90;;;;;;5146960;27;20043;-68
2022/06/07 07:41:33;;;;;;;10.70;3.25;;;13.50;99.90;;;;;;5130313;27;20402;-68
2022/06/07 07:44:01;;;;;;;10.85;2.40;;;14.80;99.90;;;;;;5146436;27;20038;-67
2022/06/07 07:46:30;;;;;;;11.50;2.90;;;13.70;99.90;;;;;;5150417;27;20042;-68
2022/06/07 07:48:56;;;;;;;8.57;2.53;;;13.70;99.90;;;;;;5114749;27;20129;-68
2022/06/07 07:51:32;;;;;;;10.43;2.55;;;13.70;99.90;;;;;;5151375;27;20386;-68
2022/06/07 07:53:59;;;;;;;13.75;2.85;;;13.70;99.90;;;;;;5149777;27;20047;-69
2022/06/07 07:56:26;;;;;;;11.27;2.88;;;13.70;99.90;;;;;;5149412;27;20042;-67
2022/06/07 07:58:53;;;;;;;8.27;2.50;;;13.70;99.90;;;;;;5151347;27;20394;-68
2022/06/07 08:01:21;;;;;;;7.68;2.30;;;13.60;99.90;;;;;;5151929;27;20062;-67
2022/06/07 08:03:48;;;;;;;11.85;2.70;;;13.60;99.90;;;;;;5149314;27;20673;-67
2022/06/07 08:06:17;;;;;;;8.40;2.40;;;13.60;99.90;;;;;;5150525;27;20126;-67
2022/06/07 08:08:45;;;;;;;8.68;2.47;;;13.60;99.90;;;;;;5149112;27;20054;-67
2022/06/07 08:11:11;;;;;;;10.30;2.58;;;13.50;99.90;;;;;;5149428;27;20107;-67
2022/06/07 08:13:37;;;;;;;7.00;2.45;;;13.50;99.90;;;;;;5148904;27;20108;-68
2022/06/07 08:16:05;;;;;;;10.88;2.65;;;13.50;99.90;;;;;;5163717;27;20123;-68
2022/06/07 08:18:30;;;;;;;8.25;2.63;;;13.50;99.90;;;;;;5149115;27;20532;-68
2022/06/07 08:21:03;;;;;;;11.48;2.80;;;13.60;99.90;;;;;;5149357;27;20070;-67
2022/06/07 08:23:30;;;;;;;13.63;2.40;;;13.60;99.90;;;;;;5148590;27;20038;-67
2022/06/07 08:25:56;;;;;;;11.20;2.85;;;13.70;99.90;;;;;;5140440;27;20054;-67
2022/06/07 08:28:22;;;;;;;10.55;2.40;;;14.10;99.90;;;;;;5129363;27;20039;-67
2022/06/07 08:30:48;;;;;;;7.30;2.30;;;13.80;99.90;;;;;;5132444;27;20178;-66
2022/06/07 08:38:44;;;;;;;11.55;2.58;;;14.00;99.90;;;;;;5148141;27;20523;-66
2022/06/07 08:41:31;;;;;;;8.20;2.63;;;14.10;99.90;;;;;;5158812;27;20114;-66
2022/06/07 08:44:04;;;;;;;8.88;2.55;;;14.10;99.90;;;;;;5128854;27;20035;-66
2022/06/07 08:46:34;;;;;;;10.80;2.30;;;14.20;99.90;;;;;;5135307;27;20402;-67
2022/06/07 08:49:00;;;;;;;6.10;2.17;;;14.30;99.90;;;;;;5129780;27;20077;-66
2022/06/07 08:51:31;;;;;;;8.75;2.13;;;14.40;99.90;;;;;;5149112;27;20073;-66
2022/06/07 08:54:00;;;;;;;9.80;2.20;;;14.60;99.90;;;;;;5108136;28;20062;-66
2022/06/07 08:56:33;;;;;;;7.10;1.92;;;14.90;99.90;;;;;;5108141;28;20183;-66
2022/06/07 08:59:05;;;;;;;13.52;2.50;;;14.90;99.90;;;;;;5104897;28;20086;-65
2022/06/07 09:02:10;;;;;;;8.25;2.35;;;15.00;99.90;;;;;;5085289;28;20464;-65
2022/06/07 09:04:51;;;;;;;8.57;1.90;;;15.00;99.90;;;;;;5087137;28;20106;-67
2022/06/07 09:07:20;;;;;;;8.38;2.38;;;15.00;99.90;;;;;;5085271;28;20040;-67
2022/06/07 09:12:54;;;;;;;7.32;2.40;;;14.60;99.90;;;;;;5087914;28;20063;-68
2022/06/07 09:15:20;;;;;;;11.88;2.35;;;15.30;99.90;;;;;;5086936;28;20059;-67
2022/06/07 09:17:55;;;;;;;13.50;2.40;;;15.50;99.90;;;;;;5087044;28;20044;-67
2022/06/07 09:20:48;;;;;;;8.70;2.22;;;15.60;99.90;;;;;;5086997;28;20822;-66
2022/06/07 09:23:31;;;;;;;12.10;2.60;;;15.50;99.90;;;;;;5083161;28;20074;-66
2022/06/07 09:26:11;;;;;;;9.15;2.28;;;16.40;99.90;;;;;;5086847;28;20043;-66
2022/06/07 09:28:37;;;;;;;11.07;2.50;;;15.40;99.90;;;;;;5085110;28;20503;-66
2022/06/07 09:31:10;;;;;;;8.43;2.22;;;15.40;99.90;;;;;;5087281;28;20044;-67
2022/06/07 09:33:48;;;;;;;9.45;2.15;;;15.30;99.90;;;;;;5087909;28;20396;-67
2022/06/07 09:36:38;;;;;;;7.97;2.22;;;15.20;99.90;;;;;;5092894;28;20184;-67
2022/06/07 09:39:20;;;;;;;10.55;2.20;;;15.10;99.90;;;;;;5077718;28;20040;-67
2022/06/07 09:41:54;;;;;;;7.32;1.95;;;15.00;99.90;;;;;;5085817;28;20055;-67
2022/06/07 09:44:35;;;;;;;8.30;2.00;;;14.90;99.90;;;;;;5085654;28;20480;-67
2022/06/07 09:47:12;;;;;;;12.02;2.30;;;14.70;99.90;;;;;;5087458;28;20552;-67
2022/06/07 09:49:41;;;;;;;9.70;2.10;;;14.60;99.90;;;;;;5087525;28;20036;-67
2022/06/07 09:52:20;;;;;;;11.30;2.10;;;14.70;99.90;;;;;;5092981;27;20035;-66
2022/06/07 09:54:49;;;;;;;9.60;2.20;;;14.70;99.90;;;;;;5132127;27;20047;-67
2022/06/07 09:57:42;;;;;;;10.82;2.17;;;14.60;99.90;;;;;;5131320;27;20043;-67
2022/06/07 10:00:40;;;;;;;10.18;3.13;;;14.70;99.90;;;;;;5132056;27;20043;-67
2022/06/07 10:03:35;;;;;;;7.07;2.00;;;14.70;99.90;;;;;;5071360;27;20062;-67
2022/06/07 10:06:17;;;;;;;10.40;2.08;;;14.70;99.90;;;;;;5113591;27;20074;-66
2022/06/07 10:09:04;;;;;;;6.03;2.25;;;14.80;99.90;;;;;;5112712;27;20051;-66
2022/06/07 10:11:35;;;;;;;10.82;2.60;;;15.00;99.90;;;;;;5130905;27;20515;-66
2022/06/07 10:14:29;;;;;;;10.50;1.90;;;15.00;99.90;;;;;;5113259;27;20062;-66
2022/06/07 10:16:54;;;;;;;6.60;2.10;;;15.10;99.90;;;;;;5112542;27;20043;-66
2022/06/07 10:19:42;;;;;;;6.85;2.00;;;15.10;99.90;;;;;;5144918;27;20491;-67
2022/06/07 10:22:29;;;;;;;11.10;2.47;;;15.10;99.90;;;;;;5115461;27;20051;-67
2022/06/07 10:25:04;;;;;;;11.60;2.40;;;15.20;99.90;;;;;;5154383;27;20375;-67
2022/06/07 10:27:42;;;;;;;7.03;2.05;;;15.20;99.90;;;;;;5145655;27;20034;-67
2022/06/07 10:30:38;;;;;;;8.65;2.10;;;15.40;99.90;;;;;;5133929;27;20047;-68
2022/06/07 10:33:09;;;;;;;7.30;2.30;;;15.40;99.90;;;;;;5111054;27;20115;-65
2022/06/07 10:35:54;;;;;;;6.95;2.05;;;15.40;99.90;;;;;;5147739;27;20375;-66
2022/06/07 10:38:56;;;;;;;9.43;2.08;;;15.30;99.90;;;;;;5146944;27;20050;-67
2022/06/07 10:41:37;;;;;;;9.68;2.33;;;15.30;99.90;;;;;;5139265;27;20430;-65
2022/06/07 10:44:03;;;;;;;8.68;2.40;;;15.40;99.90;;;;;;5127322;27;20094;-65
2022/06/07 10:46:30;;;;;;;7.38;1.77;;;15.30;99.90;;;;;;5124690;27;20043;-66
2022/06/07 10:48:56;;;;;;;6.05;1.77;;;15.40;99.90;;;;;;5120991;27;20528;-66
2022/06/07 10:54:29;;;;;;;6.80;1.70;;;15.30;99.90;;;;;;5126744;27;20050;-66
2022/06/07 10:57:14;;;;;;;6.72;1.60;;;15.30;99.90;;;;;;5127835;27;20315;-65
2022/06/07 10:59:42;;;;;;;9.85;2.03;;;15.20;99.90;;;;;;5126744;27;20050;-65
2022/06/07 11:02:24;;;;;;;8.52;1.80;;;15.20;99.90;;;;;;5124610;27;20043;-65
2022/06/07 11:10:58;;;;;;;9.85;2.20;;;15.10;99.90;;;;;;5118679;27;20130;-65
2022/06/07 11:13:41;;;;;;;7.20;2.03;;;15.30;99.90;;;;;;5126257;27;20141;-64
2022/06/07 11:16:27;;;;;;;8.27;2.15;;;15.40;99.90;;;;;;5123673;27;20047;-65
2022/06/07 11:18:53;;;;;;;7.15;2.00;;;15.60;99.90;;;;;;5126061;27;20039;-66
2022/06/07 11:21:32;;;;;;;6.00;1.80;;;15.70;99.90;;;;;;5124071;27;20490;-65
2022/06/07 11:24:05;;;;;;;6.00;1.90;;;16.10;99.90;;;;;;5124093;27;20051;-67
2022/06/07 11:26:50;;;;;;;6.07;1.75;;;16.40;99.90;;;;;;5106064;27;20050;-66
2022/06/07 11:29:22;;;;;;;6.68;1.83;;;16.60;99.90;;;;;;5117032;27;20097;-65
2022/06/07 11:31:48;;;;;;;8.10;2.25;;;16.70;99.90;;;;;;5128463;27;20046;-66
2022/06/07 11:34:22;;;;;;;7.60;2.15;;;16.60;99.90;;;;;;5125831;27;20358;-66
2022/06/07 11:36:50;;;;;;;6.15;2.00;;;16.60;99.90;;;;;;5123661;27;20039;-66
2022/06/07 11:39:29;;;;;;;5.18;1.70;;;16.70;99.90;;;;;;5125954;27;20096;-66
2022/06/07 11:41:58;;;;;;;3.65;1.60;;;16.80;99.90;;;;;;5125773;27;20051;-66
2022/06/07 11:44:30;;;;;;;7.95;1.65;;;16.90;99.90;;;;;;5117281;27;20069;-66
2022/06/07 11:47:11;;;;;;;9.02;1.70;;;17.00;99.90;;;;;;5131256;27;20495;-66
2022/06/07 11:50:01;;;;;;;2.85;1.35;;;17.60;99.90;;;;;;5127090;27;20755;-66
2022/06/07 11:52:31;;;;;;;5.50;1.60;;;18.80;99.90;;;;;;5110421;27;20040;-66
2022/06/07 11:55:17;;;;;;;3.35;1.27;;;19.30;99.90;;;;;;5102613;28;20055;-66
2022/06/07 11:57:56;;;;;;;;;;;19.40;99.90;;;;;;5097181;28;20399;-66
2022/06/07 12:00:22;;;;;;;3.13;1.30;;;19.50;99.90;;;;;;5102262;28;20566;-66
2022/06/07 12:02:56;;;;;;;6.53;1.83;;;19.40;99.90;;;;;;5107911;28;20119;-66
2022/06/07 12:05:37;;;;;;;6.10;1.80;;;19.30;99.90;;;;;;5107374;28;20077;-65
2022/06/07 12:08:09;;;;;;;5.30;1.55;;;19.10;99.90;;;;;;5093895;28;20047;-65
2022/06/07 12:10:41;;;;;;;3.60;1.55;;;18.90;99.90;;;;;;5086433;28;20048;-65
2022/06/07 12:13:07;;;;;;;5.00;1.80;;;18.50;99.90;;;;;;5088937;28;20386;-65
2022/06/07 12:15:42;;;;;;;6.22;1.65;;;18.40;99.90;;;;;;5086535;28;20044;-66
2022/06/07 12:18:21;;;;;;;7.13;2.00;;;18.40;99.90;;;;;;5085628;28;20093;-65
2022/06/07 12:21:06;;;;;;;6.28;1.50;;;18.40;99.90;;;;;;5088430;28;20474;-64
2022/06/07 12:23:36;;;;;;;4.97;1.70;;;18.40;99.90;;;;;;5085634;28;20115;-65
2022/06/07 12:26:16;;;;;;;9.45;1.90;;;18.50;99.90;;;;;;5088085;28;20071;-65
2022/06/07 12:28:50;;;;;;;9.13;2.13;;;18.40;99.90;;;;;;5089739;28;20127;-65
2022/06/07 12:31:26;;;;;;;5.10;1.70;;;18.50;99.90;;;;;;5086847;28;20138;-65
2022/06/07 12:33:54;;;;;;;5.63;1.60;;;18.40;99.90;;;;;;5086994;28;20040;-64
2022/06/07 12:36:24;;;;;;;7.88;1.70;;;18.30;99.90;;;;;;5087388;28;20036;-64
2022/06/07 12:38:51;;;;;;;9.35;2.30;;;18.10;99.90;;;;;;5085952;28;20426;-64
2022/06/07 12:41:25;;;;;;;7.95;2.10;;;17.80;99.90;;;;;;5087606;28;20118;-65
2022/06/07 12:43:55;;;;;;;11.02;2.22;;;17.70;99.90;;;;;;5087499;28;20417;-66
2022/06/07 12:46:47;;;;;;;7.30;2.15;;;17.60;99.90;;;;;;5086626;28;20036;-65
2022/06/07 12:49:41;;;;;;;8.20;2.45;;;17.60;99.90;;;;;;5086498;28;20109;-65
2022/06/07 12:52:13;;;;;;;8.07;2.53;;;17.60;99.90;;;;;;5091779;27;20036;-66
2022/06/07 12:54:45;;;;;;;12.73;3.10;;;17.40;99.90;;;;;;5128553;27;20501;-65
2022/06/07 12:57:33;;;;;;;7.28;2.40;;;17.30;99.90;;;;;;5128495;27;20043;-65
2022/06/07 13:00:19;;;;;;;6.28;2.13;;;17.20;99.90;;;;;;5120679;27;20528;-63
2022/06/07 13:03:03;;;;;;;6.57;2.17;;;17.10;99.90;;;;;;5148399;27;20043;-64
2022/06/07 13:05:33;;;;;;;11.18;2.55;;;17.10;99.90;;;;;;5147202;27;20070;-64
2022/06/07 13:08:00;;;;;;;6.88;2.00;;;17.00;99.90;;;;;;5146869;27;20039;-65
2022/06/07 13:10:31;;;;;;;7.18;1.95;;;17.10;99.90;;;;;;5129851;27;20367;-66
2022/06/07 13:13:03;;;;;;;7.55;1.88;;;17.30;99.90;;;;;;5146399;27;20118;-64
2022/06/07 13:15:35;;;;;;;5.03;1.50;;;17.50;99.90;;;;;;5146162;27;20066;-65
2022/06/07 13:18:15;;;;;;;6.32;1.70;;;17.70;99.90;;;;;;5148750;27;20053;-65
2022/06/07 13:20:46;;;;;;;5.85;1.77;;;17.80;99.90;;;;;;5147578;27;20498;-65
2022/06/07 13:23:18;;;;;;;5.20;1.40;;;18.00;99.90;;;;;;5148436;27;20050;-65
2022/06/07 13:25:44;;;;;;;3.70;1.50;;;18.10;99.90;;;;;;5165634;27;20437;-66
2022/06/07 13:28:10;;;;;;;4.68;1.60;;;18.10;99.90;;;;;;5152593;27;20046;-64